Time;durP1;ratioP1;P1;durP2;ratioP2;P2;SDS_P1;SDS_P2;PMS_P1;PMS_P2;Temp;Humidity;BMP_temperature;BMP_pressure;BME280_temperature;BME280_humidity;BME280_pressure;Samples;Min_cycle;Max_cycle;Signal;HPM_P1;HPM_P2
2021/11/07 00:04:44;;;;;;;8.30;4.70;;;;;;;;;;5095691;28;20102;-71
2021/11/07 00:09:49;;;;;;;9.48;5.47;;;;;;;;;;5096561;28;20395;-72
2021/11/07 00:12:28;;;;;;;8.57;4.80;;;;;;;;;;5095525;28;20105;-72
2021/11/07 00:14:55;;;;;;;9.23;5.63;;;;;;;;;;5095309;28;20117;-70
2021/11/07 00:17:25;;;;;;;7.82;5.00;;;;;;;;;;5095772;28;20048;-70
2021/11/07 00:19:56;;;;;;;9.98;4.78;;;;;;;;;;5095528;28;20081;-69
2021/11/07 00:25:30;;;;;;;8.25;4.57;;;;;;;;;;5032517;28;20041;-70
2021/11/07 00:28:00;;;;;;;8.43;5.03;;;;;;;;;;5085901;28;20145;-69
2021/11/07 00:30:49;;;;;;;7.95;4.95;;;;;;;;;;5095326;28;20097;-69
2021/11/07 00:33:24;;;;;;;8.68;5.15;;;;;;;;;;5086688;28;20040;-70
2021/11/07 00:38:20;;;;;;;9.00;5.22;;;;;;;;;;5095453;28;20028;-70
2021/11/07 00:43:25;;;;;;;7.22;4.75;;;;;;;;;;5095157;28;20077;-70
2021/11/07 00:48:27;;;;;;;8.60;5.10;;;;;;;;;;5115473;28;20020;-69
2021/11/07 00:51:09;;;;;;;7.10;4.63;;;;;;;;;;5115362;28;20088;-70
2021/11/07 00:56:25;;;;;;;8.32;5.13;;;;;;;;;;5115524;28;20041;-69
2021/11/07 01:01:39;;;;;;;8.52;5.05;;;;;;;;;;5114266;28;20169;-70
2021/11/07 01:04:06;;;;;;;9.30;5.75;;;;;;;;;;5114990;28;20016;-69
2021/11/07 01:06:33;;;;;;;9.48;5.72;;;;;;;;;;5096825;28;20037;-69
2021/11/07 01:09:00;;;;;;;7.75;5.07;;;;;;;;;;5097192;28;20114;-69
2021/11/07 01:11:26;;;;;;;8.02;5.07;;;;;;;;;;5114290;28;20058;-69
2021/11/07 01:13:52;;;;;;;9.32;5.57;;;;;;;;;;5096599;28;20023;-69
2021/11/07 01:16:19;;;;;;;8.95;4.88;;;;;;;;;;5114784;28;20655;-70
2021/11/07 01:18:46;;;;;;;8.40;4.70;;;;;;;;;;5113980;28;20020;-70
2021/11/07 01:21:14;;;;;;;8.57;5.05;;;;;;;;;;5115230;28;20022;-69
2021/11/07 01:23:51;;;;;;;9.25;5.45;;;;;;;;;;5096620;28;20031;-70
2021/11/07 01:26:42;;;;;;;9.27;5.30;;;;;;;;;;5096542;28;20123;-69
2021/11/07 01:29:16;;;;;;;9.48;5.40;;;;;;;;;;5114293;28;20035;-69
2021/11/07 01:31:44;;;;;;;9.25;5.32;;;;;;;;;;5095761;28;20043;-69
2021/11/07 01:37:07;;;;;;;10.15;5.55;;;;;;;;;;5064687;28;20544;-70
2021/11/07 01:42:25;;;;;;;9.40;5.50;;;;;;;;;;5093701;28;20024;-70
2021/11/07 01:44:58;;;;;;;8.35;5.15;;;;;;;;;;5075661;28;20356;-71
2021/11/07 01:47:26;;;;;;;11.65;5.07;;;;;;;;;;5093788;28;20019;-70
2021/11/07 01:49:52;;;;;;;11.18;5.85;;;;;;;;;;5093449;28;20024;-70
2021/11/07 01:52:20;;;;;;;10.10;5.65;;;;;;;;;;5084435;28;20358;-69
2021/11/07 01:54:57;;;;;;;9.43;5.38;;;;;;;;;;5095516;28;20027;-70
2021/11/07 01:57:28;;;;;;;9.85;5.75;;;;;;;;;;5100505;27;20514;-69
2021/11/07 01:59:57;;;;;;;10.02;6.20;;;;;;;;;;5093660;28;20119;-69
2021/11/07 02:02:24;;;;;;;12.63;5.15;;;;;;;;;;5112722;28;20027;-71
2021/11/07 02:04:51;;;;;;;10.32;5.63;;;;;;;;;;5095402;28;20020;-70
2021/11/07 02:07:17;;;;;;;10.30;6.07;;;;;;;;;;5113638;28;20031;-70
2021/11/07 02:09:43;;;;;;;12.43;6.03;;;;;;;;;;5077677;28;20028;-69
2021/11/07 02:12:09;;;;;;;11.18;5.90;;;;;;;;;;5093483;28;20502;-69
2021/11/07 02:14:36;;;;;;;9.13;5.47;;;;;;;;;;5093511;28;20040;-71
2021/11/07 02:17:02;;;;;;;10.10;6.20;;;;;;;;;;5093422;28;20028;-73
2021/11/07 02:19:28;;;;;;;8.93;5.70;;;;;;;;;;5075343;28;20021;-68
2021/11/07 02:21:54;;;;;;;10.50;5.68;;;;;;;;;;5073968;28;20169;-70
2021/11/07 02:24:21;;;;;;;14.27;6.95;;;;;;;;;;5093286;28;20550;-68
2021/11/07 02:26:53;;;;;;;11.43;5.97;;;;;;;;;;5075468;28;20406;-69
2021/11/07 02:29:20;;;;;;;10.15;5.55;;;;;;;;;;5093130;28;20028;-69
2021/11/07 02:31:46;;;;;;;9.25;5.57;;;;;;;;;;5092681;28;20023;-70
2021/11/07 02:34:12;;;;;;;9.32;5.55;;;;;;;;;;5079158;28;20537;-70
2021/11/07 02:36:38;;;;;;;21.25;6.38;;;;;;;;;;5094928;28;20031;-69
2021/11/07 02:39:04;;;;;;;19.58;6.43;;;;;;;;;;5094729;28;20061;-71
2021/11/07 02:41:31;;;;;;;17.52;6.22;;;;;;;;;;5113244;28;20020;-71
2021/11/07 02:43:57;;;;;;;19.20;5.82;;;;;;;;;;5113380;28;20024;-71
2021/11/07 02:46:23;;;;;;;17.52;6.00;;;;;;;;;;5113493;28;20027;-70
2021/11/07 02:48:57;;;;;;;12.30;6.18;;;;;;;;;;5113517;28;20028;-70
2021/11/07 02:51:27;;;;;;;12.38;6.25;;;;;;;;;;5113255;28;20466;-71
2021/11/07 02:53:53;;;;;;;13.52;6.28;;;;;;;;;;5113308;28;20024;-70
2021/11/07 02:56:20;;;;;;;10.18;6.20;;;;;;;;;;5113102;28;20067;-71
2021/11/07 02:58:47;;;;;;;10.40;5.90;;;;;;;;;;5113022;28;20370;-70
2021/11/07 03:01:14;;;;;;;9.52;5.93;;;;;;;;;;5094788;28;20035;-70
2021/11/07 03:03:40;;;;;;;10.07;5.82;;;;;;;;;;5094860;28;20047;-70
2021/11/07 03:06:07;;;;;;;8.95;6.00;;;;;;;;;;5113048;28;20081;-70
2021/11/07 03:08:40;;;;;;;10.23;6.35;;;;;;;;;;5094870;28;20020;-70
2021/11/07 03:11:06;;;;;;;9.55;5.82;;;;;;;;;;5113054;28;20161;-70
2021/11/07 03:13:32;;;;;;;11.32;6.70;;;;;;;;;;5112807;28;20019;-71
2021/11/07 03:16:05;;;;;;;11.35;6.43;;;;;;;;;;5112488;28;20069;-70
2021/11/07 03:18:34;;;;;;;8.85;5.82;;;;;;;;;;5112917;28;20046;-70
2021/11/07 03:21:00;;;;;;;11.10;6.28;;;;;;;;;;5112789;28;20453;-71
2021/11/07 03:23:27;;;;;;;11.25;6.40;;;;;;;;;;5112999;28;20367;-70
2021/11/07 03:26:02;;;;;;;9.38;6.32;;;;;;;;;;5112874;28;20485;-71
2021/11/07 03:28:28;;;;;;;11.50;6.78;;;;;;;;;;5094375;28;20035;-70
2021/11/07 03:31:11;;;;;;;11.23;6.65;;;;;;;;;;5112786;28;20027;-70
2021/11/07 03:36:15;;;;;;;13.75;7.28;;;;;;;;;;5112850;28;20421;-71
2021/11/07 03:38:42;;;;;;;11.63;7.50;;;;;;;;;;5112791;28;20054;-71
2021/11/07 03:41:08;;;;;;;11.23;7.18;;;;;;;;;;5112715;28;20042;-70
2021/11/07 03:43:34;;;;;;;11.32;7.35;;;;;;;;;;5112557;28;20030;-70
2021/11/07 03:46:00;;;;;;;11.07;7.68;;;;;;;;;;5112754;28;20023;-70
2021/11/07 03:48:27;;;;;;;14.68;7.68;;;;;;;;;;5112602;28;20012;-70
2021/11/07 03:50:53;;;;;;;12.35;7.10;;;;;;;;;;5112740;28;20036;-70
2021/11/07 03:53:20;;;;;;;16.73;6.72;;;;;;;;;;5112548;28;20020;-70
2021/11/07 03:55:46;;;;;;;12.07;7.43;;;;;;;;;;5112361;28;20073;-69
2021/11/07 03:58:12;;;;;;;9.65;6.65;;;;;;;;;;5112419;28;20152;-71
2021/11/07 04:00:39;;;;;;;12.68;7.28;;;;;;;;;;5094088;28;20016;-71
2021/11/07 04:03:05;;;;;;;11.68;6.35;;;;;;;;;;5112406;28;20512;-70
2021/11/07 04:05:32;;;;;;;18.75;7.50;;;;;;;;;;5112032;28;20023;-71
2021/11/07 04:07:58;;;;;;;12.43;7.25;;;;;;;;;;5112198;28;20433;-69
2021/11/07 04:10:24;;;;;;;10.77;7.47;;;;;;;;;;5094103;28;20428;-69
2021/11/07 04:12:51;;;;;;;12.20;6.68;;;;;;;;;;5112291;28;20103;-69
2021/11/07 04:15:17;;;;;;;10.63;6.88;;;;;;;;;;5112366;28;20023;-69
2021/11/07 04:17:43;;;;;;;9.00;5.97;;;;;;;;;;5112414;28;20028;-69
2021/11/07 04:20:10;;;;;;;10.10;6.45;;;;;;;;;;5112146;28;20424;-69
2021/11/07 04:22:36;;;;;;;9.48;6.07;;;;;;;;;;5112255;28;20024;-69
2021/11/07 04:25:03;;;;;;;9.55;6.63;;;;;;;;;;5093989;28;20019;-70
2021/11/07 04:27:30;;;;;;;9.32;6.03;;;;;;;;;;5094077;28;20043;-71
2021/11/07 04:29:56;;;;;;;11.70;6.88;;;;;;;;;;5094089;28;20062;-72
2021/11/07 04:32:23;;;;;;;11.90;7.00;;;;;;;;;;5101382;28;20043;-70
2021/11/07 04:34:49;;;;;;;13.48;6.78;;;;;;;;;;5090552;28;20012;-69
2021/11/07 04:37:15;;;;;;;8.75;5.80;;;;;;;;;;5091224;28;20158;-69
2021/11/07 04:39:41;;;;;;;12.68;6.90;;;;;;;;;;5091786;28;20052;-69
2021/11/07 04:42:07;;;;;;;11.27;6.50;;;;;;;;;;5091568;28;20021;-69
2021/11/07 04:44:34;;;;;;;9.73;5.85;;;;;;;;;;5091754;28;20020;-69
2021/11/07 04:47:00;;;;;;;9.30;5.68;;;;;;;;;;5095298;28;20024;-69
2021/11/07 04:49:27;;;;;;;11.55;6.05;;;;;;;;;;5095081;28;20055;-70
2021/11/07 04:51:53;;;;;;;9.68;6.47;;;;;;;;;;5095331;28;20046;-69
2021/11/07 04:54:19;;;;;;;9.05;5.97;;;;;;;;;;5094953;28;20024;-69
2021/11/07 04:56:46;;;;;;;9.38;5.95;;;;;;;;;;5095060;28;20058;-69
2021/11/07 04:59:12;;;;;;;11.48;6.15;;;;;;;;;;5095154;28;20360;-70
2021/11/07 05:01:38;;;;;;;9.02;5.78;;;;;;;;;;5095142;28;20020;-70
2021/11/07 05:04:07;;;;;;;9.55;5.95;;;;;;;;;;5094960;28;20135;-70
2021/11/07 05:06:33;;;;;;;11.35;6.18;;;;;;;;;;5095069;28;20052;-70
2021/11/07 05:08:59;;;;;;;9.18;6.07;;;;;;;;;;5095116;28;20008;-70
2021/11/07 05:11:25;;;;;;;8.27;5.57;;;;;;;;;;5094977;28;20020;-70
2021/11/07 05:13:52;;;;;;;9.32;5.45;;;;;;;;;;5094774;28;20020;-70
2021/11/07 05:16:18;;;;;;;10.13;6.22;;;;;;;;;;5110441;28;20036;-70
2021/11/07 05:18:45;;;;;;;9.18;6.10;;;;;;;;;;5110446;28;20024;-71
2021/11/07 05:21:11;;;;;;;10.30;5.55;;;;;;;;;;5110432;28;20066;-70
2021/11/07 05:23:37;;;;;;;9.02;5.93;;;;;;;;;;5110410;28;20024;-70
2021/11/07 05:26:04;;;;;;;9.43;5.97;;;;;;;;;;5094842;28;20081;-70
2021/11/07 05:28:32;;;;;;;9.82;5.65;;;;;;;;;;5094806;28;20020;-68
2021/11/07 05:30:59;;;;;;;9.35;5.70;;;;;;;;;;5094572;28;20024;-69
2021/11/07 05:33:26;;;;;;;10.27;5.65;;;;;;;;;;5094432;28;20094;-69
2021/11/07 05:35:53;;;;;;;9.80;6.05;;;;;;;;;;5094443;28;20097;-69
2021/11/07 05:38:19;;;;;;;11.52;5.65;;;;;;;;;;5094499;28;20024;-70
2021/11/07 05:40:45;;;;;;;9.98;6.00;;;;;;;;;;5094375;28;20078;-70
2021/11/07 05:43:12;;;;;;;8.98;5.75;;;;;;;;;;5110138;28;20016;-69
2021/11/07 05:45:38;;;;;;;10.07;6.43;;;;;;;;;;5094121;28;20069;-70
2021/11/07 05:48:08;;;;;;;8.32;5.50;;;;;;;;;;5094385;28;20028;-70
2021/11/07 05:50:34;;;;;;;9.25;5.50;;;;;;;;;;5094183;28;20016;-70
2021/11/07 05:53:01;;;;;;;8.98;5.80;;;;;;;;;;5109965;28;20186;-69
2021/11/07 05:55:27;;;;;;;9.43;6.30;;;;;;;;;;5094106;28;20020;-70
2021/11/07 05:57:53;;;;;;;10.57;6.15;;;;;;;;;;5094111;28;20040;-70
2021/11/07 06:00:19;;;;;;;9.88;5.75;;;;;;;;;;5109798;28;20019;-70
2021/11/07 06:02:46;;;;;;;8.52;5.80;;;;;;;;;;5109682;28;20024;-70
2021/11/07 06:05:13;;;;;;;9.18;5.72;;;;;;;;;;5093900;28;20510;-70
2021/11/07 06:07:39;;;;;;;9.38;5.90;;;;;;;;;;5093775;28;20504;-70
2021/11/07 06:10:06;;;;;;;11.23;5.35;;;;;;;;;;5093599;28;20352;-70
2021/11/07 06:12:32;;;;;;;8.98;4.80;;;;;;;;;;5093622;28;20024;-70
2021/11/07 06:14:59;;;;;;;9.43;5.97;;;;;;;;;;5109208;28;20016;-70
2021/11/07 06:17:25;;;;;;;8.60;5.60;;;;;;;;;;5093370;28;20062;-70
2021/11/07 06:19:51;;;;;;;18.25;5.78;;;;;;;;;;5093855;28;20095;-69
2021/11/07 06:22:17;;;;;;;11.50;5.63;;;;;;;;;;5109334;28;20025;-69
2021/11/07 06:24:43;;;;;;;10.40;5.53;;;;;;;;;;5093271;28;20016;-69
2021/11/07 06:27:10;;;;;;;8.88;5.53;;;;;;;;;;5093370;28;20028;-69
2021/11/07 06:29:38;;;;;;;9.38;5.53;;;;;;;;;;5093457;28;20043;-69
2021/11/07 06:32:05;;;;;;;10.65;5.40;;;;;;;;;;5093407;28;20086;-69
2021/11/07 06:34:31;;;;;;;9.68;5.50;;;;;;;;;;5096549;28;20031;-70
2021/11/07 06:36:57;;;;;;;8.40;5.15;;;;;;;;;;5112843;28;20032;-70
2021/11/07 06:39:24;;;;;;;8.82;5.63;;;;;;;;;;5113238;28;20386;-70
2021/11/07 06:41:50;;;;;;;8.25;5.65;;;;;;;;;;5095092;28;20173;-70
2021/11/07 06:44:16;;;;;;;8.18;5.28;;;;;;;;;;5113480;28;20095;-70
2021/11/07 06:46:42;;;;;;;8.95;5.68;;;;;;;;;;5095155;28;20035;-69
2021/11/07 06:49:10;;;;;;;8.15;5.65;;;;;;;;;;5095260;28;20019;-69
2021/11/07 06:51:38;;;;;;;9.07;5.40;;;;;;;;;;5092814;28;20031;-69
2021/11/07 06:54:04;;;;;;;8.75;5.68;;;;;;;;;;5092744;28;20095;-69
2021/11/07 06:56:31;;;;;;;8.77;5.15;;;;;;;;;;5074510;28;20439;-69
2021/11/07 06:58:57;;;;;;;7.82;5.32;;;;;;;;;;5092980;28;20024;-69
2021/11/07 07:01:24;;;;;;;8.68;5.40;;;;;;;;;;5092901;28;20024;-74
2021/11/07 07:03:50;;;;;;;8.32;4.63;;;;;;;;;;5092485;28;20107;-69
2021/11/07 07:06:17;;;;;;;7.78;4.30;;;;;;;;;;5092561;28;20095;-69
2021/11/07 07:08:55;;;;;;;7.07;4.70;;;;;;;;;;5091927;28;20016;-71
2021/11/07 07:11:33;;;;;;;6.60;3.83;;;;;;;;;;5089381;28;20479;-72
2021/11/07 07:22:04;;;;;;;7.05;4.35;;;;;;;;;;5092693;28;20132;-69
2021/11/07 07:35:03;;;;;;;8.68;3.97;;;;;;;;;;5108275;28;20107;-68
2021/11/07 07:37:29;;;;;;;7.45;3.42;;;;;;;;;;5091919;28;20032;-69
2021/11/07 07:39:55;;;;;;;8.25;4.25;;;;;;;;;;5091840;28;20027;-69
2021/11/07 07:42:21;;;;;;;6.38;3.38;;;;;;;;;;5091807;28;20062;-69
2021/11/07 07:44:51;;;;;;;5.70;3.50;;;;;;;;;;5074067;28;20356;-70
2021/11/07 07:47:17;;;;;;;5.32;3.20;;;;;;;;;;5091892;28;20375;-71
2021/11/07 07:49:44;;;;;;;7.07;3.75;;;;;;;;;;5092268;28;20012;-70
2021/11/07 07:52:11;;;;;;;8.50;3.83;;;;;;;;;;5073771;28;20028;-69
2021/11/07 07:54:37;;;;;;;9.63;4.20;;;;;;;;;;5091869;28;20494;-69
2021/11/07 07:57:03;;;;;;;13.88;4.60;;;;;;;;;;5091661;28;20036;-69
2021/11/07 07:59:29;;;;;;;12.13;4.45;;;;;;;;;;5092052;28;20024;-69
2021/11/07 08:01:58;;;;;;;12.10;5.32;;;;;;;;;;5092233;28;20020;-68
2021/11/07 08:04:24;;;;;;;11.15;4.90;;;;;;;;;;5091950;28;20027;-68
2021/11/07 08:06:50;;;;;;;11.30;5.40;;;;;;;;;;5092114;28;20008;-69
2021/11/07 08:09:16;;;;;;;10.00;4.80;;;;;;;;;;5092021;28;20028;-69
2021/11/07 08:11:43;;;;;;;17.63;4.88;;;;;;;;;;5091843;28;20024;-69
2021/11/07 08:14:09;;;;;;;10.63;4.82;;;;;;;;;;5073600;28;20097;-69
2021/11/07 08:16:37;;;;;;;10.38;5.20;;;;;;;;;;5091831;28;20032;-70
2021/11/07 08:19:04;;;;;;;13.38;5.28;;;;;;;;;;5091665;28;20023;-70
2021/11/07 08:21:37;;;;;;;12.55;5.18;;;;;;;;;;5076845;28;20024;-70
2021/11/07 08:24:04;;;;;;;10.68;5.82;;;;;;;;;;5095854;28;20016;-69
2021/11/07 08:26:32;;;;;;;11.05;5.20;;;;;;;;;;5095614;28;20104;-69
2021/11/07 08:28:58;;;;;;;13.18;5.93;;;;;;;;;;5095745;28;20022;-70
2021/11/07 08:31:27;;;;;;;8.73;5.43;;;;;;;;;;5077571;28;20027;-70
2021/11/07 08:33:53;;;;;;;10.95;5.30;;;;;;;;;;5095553;28;20035;-71
2021/11/07 08:36:23;;;;;;;9.90;4.95;;;;;;;;;;5095642;28;20024;-71
2021/11/07 08:38:54;;;;;;;12.55;6.13;;;;;;;;;;5095732;28;20024;-72
2021/11/07 08:41:22;;;;;;;13.40;5.32;;;;;;;;;;5095450;28;20099;-71
2021/11/07 09:03:10;;;;;;;10.15;5.47;;;;;;;;;;5095089;28;20032;-68
2021/11/07 09:08:16;;;;;;;14.55;6.38;;;;;;;;;;5095127;28;20352;-69
2021/11/07 09:10:43;;;;;;;9.02;5.40;;;;;;;;;;5094946;28;20049;-70
2021/11/07 09:13:10;;;;;;;8.50;5.40;;;;;;;;;;5076642;28;20023;-69
2021/11/07 09:15:38;;;;;;;12.38;5.75;;;;;;;;;;5094750;28;20035;-69
2021/11/07 09:18:05;;;;;;;9.82;6.10;;;;;;;;;;5094847;28;20049;-69
2021/11/07 09:20:50;;;;;;;10.15;5.28;;;;;;;;;;5094612;28;20046;-70
2021/11/07 09:26:14;;;;;;;11.18;5.45;;;;;;;;;;5095062;28;20036;-69
2021/11/07 09:29:27;;;;;;;9.73;5.50;;;;;;;;;;5076690;28;20425;-69
2021/11/07 09:36:33;;;;;;;8.82;4.68;;;;;;;;;;5094643;28;20047;-69
2021/11/07 09:39:16;;;;;;;9.75;5.68;;;;;;;;;;5094280;28;20019;-69
2021/11/07 09:44:15;;;;;;;9.57;5.28;;;;;;;;;;5094712;28;20021;-70
2021/11/07 09:47:02;;;;;;;8.98;5.30;;;;;;;;;;5094301;28;20024;-69
2021/11/07 09:49:33;;;;;;;9.07;5.10;;;;;;;;;;5076063;28;20020;-69
2021/11/07 09:52:12;;;;;;;8.45;5.20;;;;;;;;;;5093457;28;20398;-69
2021/11/07 09:54:44;;;;;;;8.85;4.82;;;;;;;;;;5093579;28;20072;-70
2021/11/07 09:57:15;;;;;;;7.53;4.70;;;;;;;;;;5093698;28;20045;-69
2021/11/07 09:59:42;;;;;;;8.80;5.32;;;;;;;;;;5093923;28;20023;-68
2021/11/07 10:02:08;;;;;;;9.20;4.82;;;;;;;;;;5093996;28;20024;-69
2021/11/07 10:04:37;;;;;;;7.65;4.45;;;;;;;;;;5093921;28;20099;-69
2021/11/07 10:07:31;;;;;;;8.27;4.43;;;;;;;;;;5093800;28;20495;-69
2021/11/07 10:10:00;;;;;;;8.20;4.53;;;;;;;;;;5075016;28;20032;-70
2021/11/07 10:12:37;;;;;;;7.72;4.40;;;;;;;;;;5076467;28;20550;-70
2021/11/07 10:15:05;;;;;;;7.90;4.25;;;;;;;;;;5093568;28;20422;-70
2021/11/07 10:17:37;;;;;;;6.93;4.32;;;;;;;;;;5093611;28;20039;-69
2021/11/07 10:22:49;;;;;;;6.63;4.20;;;;;;;;;;5093714;28;20737;-69
2021/11/07 10:25:29;;;;;;;7.50;4.60;;;;;;;;;;5093469;28;20012;-69
2021/11/07 10:27:58;;;;;;;7.47;4.47;;;;;;;;;;5075211;28;20028;-69
2021/11/07 10:30:26;;;;;;;7.60;4.20;;;;;;;;;;5093289;28;20012;-69
2021/11/07 10:33:08;;;;;;;8.43;4.85;;;;;;;;;;5074942;28;20488;-69
2021/11/07 10:38:24;;;;;;;9.27;4.80;;;;;;;;;;5093490;28;20900;-69
2021/11/07 10:52:04;;;;;;;7.07;4.70;;;;;;;;;;5093064;28;20064;-70
2021/11/07 10:53:57;;;;;;;6.28;4.18;;;;;;;;;;5092608;28;20077;-70
2021/11/07 10:56:24;;;;;;;7.72;4.30;;;;;;;;;;5092682;28;20060;-70
2021/11/07 10:58:51;;;;;;;7.65;4.45;;;;;;;;;;5092760;28;20045;-69
2021/11/07 11:01:26;;;;;;;10.10;4.65;;;;;;;;;;5108491;28;20028;-69
2021/11/07 11:03:59;;;;;;;6.50;4.55;;;;;;;;;;5092740;28;20020;-69
2021/11/07 11:06:25;;;;;;;6.50;4.28;;;;;;;;;;5092625;28;20443;-69
2021/11/07 11:11:33;;;;;;;6.53;4.00;;;;;;;;;;5092733;28;20042;-70
2021/11/07 11:27:25;;;;;;;7.57;4.38;;;;;;;;;;5092319;28;20066;-70
2021/11/07 11:32:43;;;;;;;6.82;4.50;;;;;;;;;;5092280;28;20048;-70
2021/11/07 11:35:28;;;;;;;6.10;3.72;;;;;;;;;;5108056;28;20028;-70
2021/11/07 11:43:12;;;;;;;8.23;4.10;;;;;;;;;;5092567;28;20057;-70
2021/11/07 11:45:41;;;;;;;6.25;3.70;;;;;;;;;;5092343;28;20044;-69
2021/11/07 11:55:46;;;;;;;5.75;3.20;;;;;;;;;;5095745;28;20467;-70
2021/11/07 11:58:30;;;;;;;7.07;4.18;;;;;;;;;;5096366;28;20052;-70
2021/11/07 12:03:46;;;;;;;6.95;3.90;;;;;;;;;;5096663;28;20024;-69
2021/11/07 12:06:23;;;;;;;5.07;3.45;;;;;;;;;;5096209;28;20016;-69
2021/11/07 12:09:11;;;;;;;6.22;3.70;;;;;;;;;;5096128;28;20016;-70
2021/11/07 12:11:46;;;;;;;7.13;3.50;;;;;;;;;;5096077;28;20034;-69
2021/11/07 12:14:20;;;;;;;5.30;3.20;;;;;;;;;;5096027;28;20066;-70
2021/11/07 12:16:58;;;;;;;5.93;3.25;;;;;;;;;;5095800;28;20499;-70
2021/11/07 12:19:31;;;;;;;6.05;3.33;;;;;;;;;;5096000;28;20673;-70
2021/11/07 12:21:57;;;;;;;;;;;;;;;;;;5096241;28;20111;-70
2021/11/07 12:24:58;;;;;;;4.03;2.65;;;;;;;;;;5077675;28;19949;-69
2021/11/07 12:27:28;;;;;;;6.53;3.17;;;;;;;;;;5095871;28;20097;-70
2021/11/07 12:29:56;;;;;;;4.95;3.08;;;;;;;;;;5095826;28;20016;-69
2021/11/07 12:32:30;;;;;;;5.50;3.15;;;;;;;;;;5095525;28;20373;-70
2021/11/07 12:40:45;;;;;;;5.82;3.10;;;;;;;;;;5095921;28;20089;-70
2021/11/07 12:43:13;;;;;;;5.93;2.95;;;;;;;;;;5095416;28;20051;-71
2021/11/07 12:45:43;;;;;;;4.80;2.97;;;;;;;;;;5111039;28;20028;-70
2021/11/07 12:48:10;;;;;;;6.30;2.75;;;;;;;;;;5110998;28;20115;-70
2021/11/07 12:50:58;;;;;;;6.60;3.72;;;;;;;;;;5095494;28;20022;-70
2021/11/07 12:53:25;;;;;;;6.05;3.70;;;;;;;;;;5094946;28;20030;-70
2021/11/07 12:55:52;;;;;;;6.18;3.55;;;;;;;;;;5095101;28;20451;-68
2021/11/07 12:58:18;;;;;;;5.88;3.40;;;;;;;;;;5095239;28;20126;-69
2021/11/07 13:00:44;;;;;;;5.43;3.10;;;;;;;;;;5094887;28;20027;-69
2021/11/07 13:03:12;;;;;;;5.85;3.28;;;;;;;;;;5094866;28;20032;-70
2021/11/07 13:05:40;;;;;;;7.68;3.30;;;;;;;;;;5093874;28;20016;-69
2021/11/07 13:08:17;;;;;;;6.07;3.15;;;;;;;;;;5094901;28;20020;-69
2021/11/07 13:16:02;;;;;;;6.40;3.45;;;;;;;;;;5096010;28;20459;-69
2021/11/07 13:23:52;;;;;;;13.18;3.25;;;;;;;;;;5112603;28;20118;-69
2021/11/07 13:26:32;;;;;;;8.50;3.33;;;;;;;;;;5111498;28;20023;-69
2021/11/07 13:31:43;;;;;;;8.32;3.25;;;;;;;;;;5114709;28;20020;-70
2021/11/07 13:34:13;;;;;;;8.23;3.53;;;;;;;;;;5109855;28;20089;-70
2021/11/07 13:36:41;;;;;;;5.97;3.00;;;;;;;;;;5094140;28;20035;-70
2021/11/07 13:39:07;;;;;;;14.13;3.38;;;;;;;;;;5094143;28;20020;-71
2021/11/07 13:41:34;;;;;;;7.53;3.22;;;;;;;;;;5094057;28;20024;-70
2021/11/07 13:44:07;;;;;;;5.55;2.90;;;;;;;;;;5094141;28;20016;-69
2021/11/07 13:46:35;;;;;;;7.93;2.60;;;;;;;;;;5094690;28;20020;-70
2021/11/07 13:49:03;;;;;;;6.00;3.22;;;;;;;;;;5094101;28;20206;-71
2021/11/07 13:51:34;;;;;;;5.35;3.10;;;;;;;;;;5093956;28;20023;-69
2021/11/07 13:54:05;;;;;;;9.18;2.90;;;;;;;;;;5075575;28;20115;-70
2021/11/07 13:56:32;;;;;;;8.48;2.95;;;;;;;;;;5093880;28;20024;-70
2021/11/07 13:58:58;;;;;;;5.93;3.30;;;;;;;;;;5093735;28;20411;-70
2021/11/07 14:01:29;;;;;;;9.68;2.75;;;;;;;;;;5093529;28;20039;-70
2021/11/07 14:03:56;;;;;;;6.15;3.13;;;;;;;;;;5094209;28;20028;-71
2021/11/07 14:06:36;;;;;;;5.85;2.90;;;;;;;;;;5075321;28;20022;-71
2021/11/07 14:09:04;;;;;;;6.55;3.33;;;;;;;;;;5093472;28;20020;-71
2021/11/07 14:11:32;;;;;;;5.78;3.38;;;;;;;;;;5093414;28;20091;-69
2021/11/07 14:13:59;;;;;;;5.18;2.80;;;;;;;;;;5093263;28;20028;-70
2021/11/07 14:16:34;;;;;;;6.05;3.05;;;;;;;;;;5093242;28;20387;-70
2021/11/07 14:19:04;;;;;;;5.43;2.65;;;;;;;;;;5100716;28;20019;-70
2021/11/07 14:21:32;;;;;;;5.13;2.92;;;;;;;;;;5094893;28;20024;-71
2021/11/07 14:24:13;;;;;;;6.15;3.17;;;;;;;;;;5093146;28;20483;-71
2021/11/07 14:26:45;;;;;;;6.53;2.70;;;;;;;;;;5075010;28;20024;-71
2021/11/07 14:29:29;;;;;;;7.05;2.92;;;;;;;;;;5093045;28;20096;-70
2021/11/07 14:32:23;;;;;;;5.63;3.05;;;;;;;;;;5111317;28;20031;-71
2021/11/07 14:37:32;;;;;;;5.70;3.22;;;;;;;;;;5103970;28;20446;-70
2021/11/07 14:40:14;;;;;;;6.05;3.25;;;;;;;;;;5075040;28;20495;-69
2021/11/07 14:45:48;;;;;;;7.55;3.40;;;;;;;;;;5101087;28;20027;-69
2021/11/07 14:53:45;;;;;;;7.00;3.17;;;;;;;;;;5110983;28;20081;-71
2021/11/07 14:56:26;;;;;;;9.48;3.60;;;;;;;;;;5093182;28;20379;-71
2021/11/07 15:01:45;;;;;;;5.60;3.40;;;;;;;;;;5092732;28;20027;-68
2021/11/07 15:04:25;;;;;;;6.75;3.70;;;;;;;;;;5117314;28;20023;-68
2021/11/07 15:07:26;;;;;;;6.50;4.05;;;;;;;;;;5095389;28;20427;-70
2021/11/07 15:15:25;;;;;;;9.60;4.10;;;;;;;;;;5112611;28;20024;-70
2021/11/07 15:20:44;;;;;;;6.35;3.63;;;;;;;;;;5092515;28;20487;-70
2021/11/07 15:23:24;;;;;;;9.02;4.40;;;;;;;;;;5092207;28;20020;-70
2021/11/07 15:25:50;;;;;;;9.38;4.30;;;;;;;;;;5092306;28;20030;-70
2021/11/07 15:28:16;;;;;;;31.38;4.95;;;;;;;;;;5092772;28;20024;-71
2021/11/07 15:30:43;;;;;;;7.55;3.85;;;;;;;;;;5091902;28;20024;-71
2021/11/07 15:33:16;;;;;;;6.78;4.00;;;;;;;;;;5091803;28;20040;-70
2021/11/07 15:35:47;;;;;;;6.22;3.95;;;;;;;;;;5073845;28;20028;-69
2021/11/07 15:38:18;;;;;;;8.77;4.10;;;;;;;;;;5091852;28;20035;-71
2021/11/07 15:40:44;;;;;;;6.95;3.60;;;;;;;;;;5091828;28;20021;-69
2021/11/07 15:43:15;;;;;;;7.88;4.07;;;;;;;;;;5073743;28;20119;-69
2021/11/07 15:46:26;;;;;;;7.32;3.60;;;;;;;;;;5092676;28;20065;-70
2021/11/07 15:48:35;;;;;;;7.85;4.18;;;;;;;;;;5080865;28;20060;-71
2021/11/07 15:56:42;;;;;;;6.50;3.53;;;;;;;;;;5091931;28;20415;-70
2021/11/07 15:59:27;;;;;;;7.78;3.97;;;;;;;;;;5091773;28;20030;-69
2021/11/07 16:02:00;;;;;;;7.93;3.65;;;;;;;;;;5092544;28;20047;-71
2021/11/07 16:07:15;;;;;;;6.88;3.20;;;;;;;;;;5092214;28;19904;-72
2021/11/07 16:09:57;;;;;;;7.40;3.70;;;;;;;;;;5092018;28;20027;-70
2021/11/07 16:15:06;;;;;;;6.97;3.90;;;;;;;;;;5112209;28;20015;-71
2021/11/07 16:17:34;;;;;;;;;;;;;;;;;;5094384;28;20118;-71
2021/11/07 16:20:06;;;;;;;7.10;3.72;;;;;;;;;;5111345;28;20358;-70
2021/11/07 16:22:32;;;;;;;6.88;4.32;;;;;;;;;;5111949;28;20112;-69
2021/11/07 16:25:00;;;;;;;8.10;3.92;;;;;;;;;;5093847;28;20024;-70
2021/11/07 16:27:26;;;;;;;8.02;3.83;;;;;;;;;;5093586;28;20039;-69
2021/11/07 16:29:52;;;;;;;7.38;3.97;;;;;;;;;;5111960;28;20020;-71
2021/11/07 16:32:30;;;;;;;6.82;4.07;;;;;;;;;;5111807;28;20051;-70
2021/11/07 16:35:12;;;;;;;6.97;3.50;;;;;;;;;;5112019;28;20027;-70
2021/11/07 16:37:44;;;;;;;6.07;3.85;;;;;;;;;;5092657;28;20062;-71
2021/11/07 16:42:39;;;;;;;6.72;4.05;;;;;;;;;;5114725;28;20371;-70
2021/11/07 16:45:06;;;;;;;7.35;4.90;;;;;;;;;;5115471;28;20015;-71
2021/11/07 16:47:35;;;;;;;7.75;4.50;;;;;;;;;;5097146;28;20072;-70
2021/11/07 16:50:03;;;;;;;6.82;4.65;;;;;;;;;;5096736;28;20456;-69
2021/11/07 16:52:31;;;;;;;7.28;4.70;;;;;;;;;;5114320;28;20672;-70
2021/11/07 16:55:10;;;;;;;6.90;4.72;;;;;;;;;;5115499;28;20103;-72
2021/11/07 16:57:37;;;;;;;7.38;4.63;;;;;;;;;;5115196;28;20034;-70
2021/11/07 17:00:16;;;;;;;7.15;4.47;;;;;;;;;;5097159;28;20027;-70
2021/11/07 17:05:18;;;;;;;7.93;4.80;;;;;;;;;;5115063;28;20028;-69
2021/11/07 17:10:29;;;;;;;8.52;5.07;;;;;;;;;;5105597;28;20467;-69
2021/11/07 17:13:00;;;;;;;6.50;4.20;;;;;;;;;;5094730;28;20066;-70
2021/11/07 17:15:32;;;;;;;8.15;5.07;;;;;;;;;;5094602;28;20020;-70
2021/11/07 17:18:08;;;;;;;7.55;4.68;;;;;;;;;;5076443;28;20048;-69
2021/11/07 17:24:26;;;;;;;7.05;4.63;;;;;;;;;;5094845;28;20494;-69
2021/11/07 17:26:22;;;;;;;7.90;4.43;;;;;;;;;;5076649;28;20107;-70
2021/11/07 17:29:01;;;;;;;9.60;5.13;;;;;;;;;;5114787;28;20106;-70
2021/11/07 17:31:39;;;;;;;7.60;4.47;;;;;;;;;;5114755;28;20023;-69
2021/11/07 17:37:23;;;;;;;11.70;4.80;;;;;;;;;;5050923;28;20071;-69
2021/11/07 17:56:33;;;;;;;17.15;5.50;;;;;;;;;;5114178;28;20098;-70
2021/11/07 17:58:59;;;;;;;8.88;5.18;;;;;;;;;;5096026;28;20023;-70
2021/11/07 18:01:25;;;;;;;10.52;4.88;;;;;;;;;;5113424;28;20024;-70
2021/11/07 18:03:52;;;;;;;11.10;5.68;;;;;;;;;;5114052;28;20015;-70
2021/11/07 18:06:19;;;;;;;11.68;5.30;;;;;;;;;;5114139;28;20020;-71
2021/11/07 18:08:52;;;;;;;15.25;5.70;;;;;;;;;;5109099;27;20032;-71
2021/11/07 18:11:18;;;;;;;9.98;5.95;;;;;;;;;;5093318;28;20107;-70
2021/11/07 18:13:44;;;;;;;12.50;5.95;;;;;;;;;;5093596;28;20024;-70
2021/11/07 18:16:11;;;;;;;9.57;5.53;;;;;;;;;;5092031;28;20054;-70
2021/11/07 18:18:38;;;;;;;10.63;5.40;;;;;;;;;;5093991;28;20039;-69
2021/11/07 18:21:05;;;;;;;10.02;5.60;;;;;;;;;;5093544;28;20073;-70
2021/11/07 18:23:53;;;;;;;11.10;5.72;;;;;;;;;;5093290;28;20150;-70
2021/11/07 18:26:19;;;;;;;11.13;5.68;;;;;;;;;;5093308;28;20020;-71
2021/11/07 18:28:45;;;;;;;9.30;5.20;;;;;;;;;;5093375;28;20049;-70
2021/11/07 18:31:11;;;;;;;8.93;5.20;;;;;;;;;;5093268;28;20020;-70